Pagrindinis puslapis
METAR-TAF:

METAR-TAF

Oro uostai :

Oro pajėgų bazė

Linšiopingas, Švedija

platuma: 58-24N, ilguma: 015-31E, Aukštis: 93 m

Dabartinis oras

Ataskaita buvo paskelbta 29 minutes, ne 05:20 UTC
Vėjas 10 kt iš Vakarų/Pietvakarių
Temperatūra 18°C
Drėgmė 88%
Slėgis 1008 hPa
Matomumas 10 km arba daugiau
Su prošvaistėmis ne aukštis 900 ft

METAR: ESCF 220520Z 24010KT 9999 BKN009 18/16 Q1008

Laikas: 07:49 (05:49 UTC)

Prognozė

Ataskaita buvo paskelbta 59 minutes, ne 04:50 UTC
Prognozė galioja nuo 22 metu 05 UTC su 22 metu 14 UTC
Vėjas 8 kt iš Vakarų/Pietvakarių su gūsio iki 15 kt
Matomumas 10 km arba daugiau
Su prošvaistėmis ne aukštis 2000 ft
Laikinai
nuo 22 metu 05 UTC su 22 metu 07 UTC
Su prošvaistėmis ne aukštis 800 ft
Laikinai
nuo 22 metu 07 UTC su 22 metu 09 UTC
Su prošvaistėmis ne aukštis 1300 ft

TAF: ESCF 220450Z 2205/2214 25008G15KT 9999 BKN020 TEMPO 2205/2207 BKN008 TEMPO 2207/2209 BKN013 RMK MIL

Orai ataskaitas ir orų prognozės (METAR, TAF).

turimą stotys yra geltonos ir raudonos taškus žemėlapyje.

Perkelti pele per norėdami pamatyti stoties vardą.

Tada spustelėkite, norėdami matyti oro stebėjimo ir prognozės.

Norėdami pakeisti žemėlapį: spustelėkite ant žalios mygtukų su juodo kryžiaus žemyn,; žalią mygtuką su brūkšneliu, jei norite nutolinti; arba žalių rodyklių gretimoms žemėlapius.


METAR-TAF: